Latest Coastal Weather Observations for Roebourne Airport

IDW60701

Issued at 2:03 am WST Sunday 26 February 2017 (issued every 10 minutes, with the page automatically refreshed every 10 minutes)

About coastal observations | Map of coastal stations | Coastal observations for WA | Marine services | Other Formats
Station Details ID: 004090 Name: ROEBOURNE AERO Lat: -20.76 Lon: 117.16 Height: 10.7 m
Data from the previous 72 hours. | See also: Recent months at Roebourne Airport
Date/Time
WST
Temp
°C
Wind Pressure Rain since
9am
mm
Weather Cloud Vis
km
Sea
Height
m
Swell
Dir  Spd
kts
Gust
kts
hPa Trend Height
m
Period
s
Dir
26/02:00am 26.8 SW 4 5 1008.1 - 0.0 - - - - - - -
26/01:30am 26.7 SW 5 5 1008.4 - 0.0 - - - - - - -
26/01:00am 26.8 SW 3 4 1008.6 - 0.0 - - - - - - -
26/12:30am 27.6 SW 6 7 1008.8 - 0.0 - - - - - - -
26/12:00am 28.0 SW 7 7 1009.1 - 0.0 - - - - - - -
 
Date/Time
WST
Temp
°C
Wind Pressure Rain since
9am
mm
Weather Cloud Vis
km
Sea
Height
m
Swell
Dir  Spd
kts
Gust
kts
hPa Trend Height
m
Period
s
Dir
25/11:30pm 28.3 SW 7 7 1009.4 - 0.0 - - - - - - -
25/11:00pm 28.0 SSW 6 7 1009.6 - 0.0 - - - - - - -
25/10:30pm 29.0 SW 4 5 1009.7 - 0.0 - - - - - - -
25/10:00pm 30.1 W 5 6 1009.7 - 0.0 - - - - - - -
25/09:30pm 30.3 SW 5 8 1009.8 - 0.0 - - - - - - -
25/09:00pm 30.6 WSW 9 12 1009.9 - 0.0 - - - - - - -
25/08:30pm 30.1 CALM 0 3 1009.1 - 0.0 - - - - - - -
25/08:00pm 30.9 N 4 5 1008.9 - 0.0 - - - - - - -
25/07:30pm 31.9 NW 5 5 1008.5 - 0.0 - - - - - - -
25/07:00pm 33.0 N 7 9 1007.9 - 0.0 - - - - - - -
25/06:30pm 34.3 N 8 11 1007.7 - 0.0 - - - - - - -
25/06:00pm 35.5 NNE 11 15 1007.4 - 0.0 - - - - - - -
25/05:30pm 36.2 NNE 12 16 1007.2 - 0.0 - - - - - - -
25/05:00pm 37.0 NNE 16 20 1007.2 - 0.0 - - - - - - -
25/04:30pm 38.0 NNE 15 19 1007.2 - 0.0 - - - - - - -
25/04:00pm 38.6 NNE 15 18 1007.4 - 0.0 - - - - - - -
25/03:30pm 38.8 NNE 14 17 1007.6 - 0.0 - - - - - - -
25/03:00pm 39.6 NE 15 19 1007.8 - 0.0 - - - - - - -
25/02:30pm 39.7 NE 17 22 1008.3 - 0.0 - - - - - - -
25/02:00pm 40.1 NE 17 23 1008.6 - 0.0 - - - - - - -
25/01:30pm 39.9 NE 18 22 1008.9 - 0.0 - - - - - - -
25/01:00pm 39.9 ENE 18 23 1009.2 - 0.0 - - - - - - -
25/12:30pm 39.5 ENE 20 24 1009.5 - 0.0 - - - - - - -
25/12:00pm 39.6 ENE 17 23 1009.8 - 0.0 - - - - - - -
25/11:30am 38.7 ENE 15 20 1009.9 - 0.0 - - - - - - -
25/11:00am 37.9 ENE 16 21 1010.0 - 0.0 - - - - - - -
25/10:30am 38.1 ENE 15 21 1010.2 - 0.0 - - - - - - -
25/10:00am 37.4 E 15 20 1010.5 - 0.0 - - - - - - -
25/09:30am 36.7 E 16 21 1010.4 - 0.0 - - - - - - -
25/09:00am 36.1 ESE 15 20 1010.4 - 0.0 - - - - - - -
25/08:30am 35.5 ESE 15 19 1010.3 - 0.0 - - - - - - -
25/08:00am 35.1 ESE 11 16 1010.2 - 0.0 - - - - - - -
25/07:30am 33.1 SSE 4 5 1009.9 - 0.0 - - - - - - -
25/07:00am 30.1 CALM 0 0 1009.8 - 0.0 - - - - - - -
25/06:30am 27.4 CALM 0 1 1009.6 - 0.0 - - - - - - -
25/06:00am 26.3 S 1 3 1009.4 - 0.0 - - - - - - -
25/05:30am 26.6 CALM 0 3 1008.9 - 0.0 - - - - - - -
25/05:00am 28.0 SSW 3 4 1009.0 - 0.0 - - - - - - -
25/04:30am 27.0 ESE 1 3 1008.9 - 0.0 - - - - - - -
25/04:00am 27.1 CALM 0 0 1008.6 - 0.0 - - - - - - -
25/03:30am 27.3 SW 6 7 1008.7 - 0.0 - - - - - - -
25/03:00am 28.5 SW 6 7 1008.9 - 0.0 - - - - - - -
25/02:30am 29.5 SW 9 11 1008.9 - 0.0 - - - - - - -
25/02:00am 30.1 SW 7 8 1009.1 - 0.0 - - - - - - -
25/01:30am 30.9 WSW 6 7 1009.3 - 0.0 - - - - - - -
25/01:00am 32.1 WSW 8 10 1009.5 - 0.0 - - - - - - -
25/12:30am 32.7 WSW 9 11 1009.6 - 0.0 - - - - - - -
25/12:00am 33.1 WSW 11 14 1010.0 - 0.0 - - - - - - -
 
Date/Time
WST
Temp
°C
Wind Pressure Rain since
9am
mm
Weather Cloud Vis
km
Sea
Height
m
Swell
Dir  Spd
kts
Gust
kts
hPa Trend Height
m
Period
s
Dir
24/11:30pm 32.7 SW 11 14 1010.6 - 0.0 - - - - - - -
24/11:00pm 33.3 SW 11 14 1011.1 - 0.0 - - - - - - -
24/10:30pm 32.9 SSW 9 12 1011.4 - 0.0 - - - - - - -
24/10:00pm 32.0 S 9 10 1011.8 - 0.0 - - - - - - -
24/09:30pm 32.4 SSE 4 7 1012.0 - 0.0 - - - - - - -
24/09:00pm 34.3 ESE 8 11 1011.8 - 0.0 - - - - - - -
24/08:30pm 33.3 WSW 10 13 1010.2 - 0.0 - - - - - - -
24/08:00pm 33.7 WSW 12 16 1010.1 - 0.0 - - - - - - -
24/07:30pm 33.8 WSW 10 15 1009.9 - 0.0 - - - - - - -
24/07:00pm 34.5 W 11 13 1009.5 - 0.0 - - - - - - -
24/06:30pm 35.8 WNW 11 14 1009.2 - 0.0 - - - - - - -
24/06:00pm 37.3 NW 9 11 1009.0 - 0.0 - - - - - - -
24/05:30pm 38.4 WNW 9 10 1008.9 - 0.0 - - - - - - -
24/05:00pm 38.5 NW 7 10 1008.8 - 0.0 - - - - - - -
24/04:30pm 39.4 CALM 0 2 1008.8 - 0.0 - - - - - - -
24/04:00pm 38.6 ENE 1 6 1009.0 - 0.0 - - - - - - -
24/03:30pm 39.7 E 8 12 1009.2 - 0.0 - - - - - - -
24/03:00pm 39.3 ENE 7 11 1009.4 - 0.0 - - - - - - -
24/02:30pm 39.3 E 8 12 1009.7 - 0.0 - - - - - - -
24/02:00pm 39.3 NE 9 14 1010.1 - 0.0 - - - - - - -
24/01:30pm 38.8 ESE 9 16 1010.5 - 0.0 - - - - - - -
24/01:00pm 38.7 ESE 10 16 1011.0 - 0.0 - - - - - - -
24/12:30pm 38.3 ESE 9 14 1011.4 - 0.0 - - - - - - -
24/12:00pm 38.1 ESE 10 14 1011.9 - 0.0 - - - - - - -
24/11:30am 37.6 E 10 14 1012.2 - 0.0 - - - - - - -
24/11:00am 36.9 ESE 12 16 1012.6 - 0.0 - - - - - - -
24/10:30am 36.2 ESE 12 16 1012.9 - 0.0 - - - - - - -
24/10:00am 35.3 ESE 13 16 1013.3 - 0.0 - - - - - - -
24/09:30am 34.5 SE 13 18 1013.7 - 0.0 - - - - - - -
24/09:00am 33.7 SE 10 14 1014.0 - 0.0 - - - - - - -
24/08:30am 32.1 SE 4 7 1014.1 - 0.0 - - - - - - -
24/08:00am 30.0 SSE 3 5 1013.8 - 0.0 - - - - - - -
24/07:30am 28.4 S 2 3 1013.4 - 0.0 - - - - - - -
24/07:00am 26.2 SW 5 6 1013.1 - 0.0 - - - - - - -
24/06:30am 25.6 W 5 6 1012.9 - 0.0 - - - - - - -
24/06:00am 24.7 SSW 1 3 1012.6 - 0.0 - - - - - - -
24/05:30am 24.8 SSW 3 4 1012.5 - 0.0 - - - - - - -
24/05:00am 25.5 CALM 0 0 1012.2 - 0.0 - - - - - - -
24/04:30am 25.0 CALM 0 0 1012.0 - 0.0 - - - - - - -
24/04:00am 24.8 CALM 0 0 1011.9 - 0.0 - - - - - - -
24/03:30am 24.7 CALM 0 1 1011.8 - 0.0 - - - - - - -
24/03:00am 25.0 CALM 0 0 1011.6 - 0.0 - - - - - - -
24/02:30am 25.3 SW 2 3 1011.5 - 0.0 - - - - - - -
24/02:00am 26.3 SW 2 3 1011.7 - 0.0 - - - - - - -
24/01:30am 26.4 WSW 4 4 1012.1 - 0.0 - - - - - - -
24/01:00am 26.6 W 5 6 1012.3 - 0.0 - - - - - - -
24/12:30am 26.9 W 3 4 1012.4 - 0.0 - - - - - - -
24/12:00am 27.1 NW 2 4 1012.6 - 0.0 - - - - - - -
 
Date/Time
WST
Temp
°C
Wind Pressure Rain since
9am
mm
Weather Cloud Vis
km
Sea
Height
m
Swell
Dir  Spd
kts
Gust
kts
hPa Trend Height
m
Period
s
Dir
23/11:30pm 27.3 SW 2 4 1012.8 - 0.0 - - - - - - -
23/11:00pm 27.1 SSE 4 6 1012.9 - 0.0 - - - - - - -
23/10:30pm 27.0 S 5 6 1012.8 - 0.0 - - - - - - -
23/10:00pm 27.8 W 5 7 1013.0 - 0.0 - - - - - - -
23/09:30pm 27.7 SSW 9 10 1013.0 - 0.0 - - - - - - -
23/09:00pm 27.8 SSW 10 13 1012.9 - 0.0 - - - - - - -
23/08:30pm 28.2 SSW 11 14 1012.7 - 0.0 - - - - - - -
23/08:00pm 28.3 SSW 11 14 1012.6 - 0.0 - - - - - - -
23/07:30pm 28.4 SW 10 14 1012.7 - 0.0 - - - - - - -
23/07:00pm 28.2 SW 9 13 1012.3 - 0.0 - - - - - - -
23/06:30pm 28.7 WSW 11 15 1011.9 - 0.0 - - - - - - -
23/06:00pm 29.5 WNW 8 10 1011.4 - 0.0 - - - - - - -
23/05:30pm 28.5 E 16 22 1011.6 - 0.0 - - - - - - -
23/05:16pm 26.6 ESE 25 38 1012.2 - 0.0 - - - - - - -
23/05:00pm 27.3 E 27 37 1011.9 - 0.0 - - - - - - -
23/04:55pm 27.6 E 24 37 1011.9 - 0.0 - - - - - - -
23/04:39pm 30.1 ESE 15 26 1012.0 - 0.0 - - - - - - -
23/04:30pm 31.4 SSE 8 22 1011.8 - 0.0 - - - - - - -
23/04:00pm 32.5 SSE 13 19 1010.7 - 0.0 - - - - - - -
23/03:35pm 33.3 WSW 8 22 1010.5 - 0.0 - - - - - - -
23/03:30pm 33.8 WNW 4 12 1010.5 - 0.0 - - - - - - -
23/03:00pm 34.6 N 7 13 1010.3 - 0.0 - - - - - - -
23/02:30pm 33.9 NNE 9 12 1009.9 - 0.0 - - - - - - -
23/02:00pm 33.9 NNE 10 12 1010.5 - 0.0 - - - - - - -
23/01:30pm 34.7 NNE 10 15 1010.6 - 0.0 - - - - - - -
23/01:00pm 34.7 NNE 11 17 1011.2 - 0.0 - - - - - - -
23/12:30pm 35.8 NE 8 14 1011.5 - 0.0 - - - - - - -
23/12:00pm 35.5 NE 9 14 1011.9 - 0.0 - - - - - - -
23/11:30am 35.6 ENE 7 13 1012.2 - 0.0 - - - - - - -
23/11:00am 34.5 ENE 8 13 1012.4 - 0.0 - - - - - - -
23/10:30am 34.1 E 7 11 1012.6 - 0.0 - - - - - - -
23/10:00am 33.8 E 6 10 1012.6 - 0.0 - - - - - - -
23/09:30am 33.4 ENE 5 9 1012.7 - 0.0 - - - - - - -
23/09:00am 33.0 E 4 8 1012.7 - 0.0 - - - - - - -
23/08:30am 31.7 ENE 3 6 1012.6 - 0.0 - - - - - - -
23/08:00am 30.6 NE 3 6 1012.4 - 0.0 - - - - - - -
23/07:30am 30.3 CALM 0 0 1012.1 - 0.0 - - - - - - -
23/07:00am 28.9 ESE 2 3 1011.8 - 0.0 - - - - - - -
23/06:30am 28.3 SE 5 5 1011.7 - 0.0 - - - - - - -
23/06:00am 28.2 E 5 6 1011.4 - 0.0 - - - - - - -
23/05:30am 28.3 E 4 5 1011.1 - 0.0 - - - - - - -
23/05:00am 28.7 CALM 0 4 1010.9 - 0.0 - - - - - - -
23/04:30am 28.8 W 3 4 1010.5 - 0.0 - - - - - - -
23/04:00am 28.6 W 4 5 1010.4 - 0.0 - - - - - - -
23/03:30am 28.5 W 4 6 1010.4 - 0.0 - - - - - - -
23/03:00am 28.6 CALM 0 0 1010.6 - 0.0 - - - - - - -
23/02:30am 28.9 CALM 0 0 1010.6 - 0.0 - - - - - - -

Other Formats:

Comma delimited format used in spreadsheet applications
http://www.bom.gov.au/fwo/IDW60701/IDW60701.94308.axf

JavaScript Object Notation format (JSON) in row-major order
http://www.bom.gov.au/fwo/IDW60701/IDW60701.94308.json